createdAt,value
2023-06-11T00:00:16.871Z,11.63
2023-06-11T00:02:45.220Z,10.50
2023-06-11T00:05:13.661Z,13.00
2023-06-11T00:07:41.719Z,12.57
2023-06-11T00:10:10.705Z,9.60
2023-06-11T00:12:38.700Z,9.37
2023-06-11T00:15:09.528Z,11.63
2023-06-11T00:17:38.199Z,9.63
2023-06-11T00:20:12.385Z,10.63
2023-06-11T00:22:41.309Z,10.10
2023-06-11T00:25:11.658Z,9.87
2023-06-11T00:27:39.966Z,9.27
2023-06-11T00:30:09.976Z,9.17
2023-06-11T00:32:38.049Z,13.47
2023-06-11T00:35:08.547Z,10.93
2023-06-11T00:37:37.429Z,11.33
2023-06-11T00:40:06.168Z,11.13
2023-06-11T00:42:34.886Z,9.77
2023-06-11T00:45:04.895Z,11.30
2023-06-11T00:47:35.151Z,10.07
2023-06-11T00:50:05.154Z,9.90
2023-06-11T00:52:33.264Z,10.30
2023-06-11T00:55:01.817Z,12.20
2023-06-11T00:57:29.772Z,9.67
2023-06-11T00:59:58.225Z,8.60
2023-06-11T01:02:33.654Z,10.43
2023-06-11T01:05:05.601Z,13.20
2023-06-11T01:07:38.364Z,10.80
2023-06-11T01:10:07.891Z,11.27
2023-06-11T01:12:35.960Z,8.83
2023-06-11T01:15:04.136Z,11.30
2023-06-11T01:17:42.276Z,11.90
2023-06-11T01:20:16.506Z,12.53
2023-06-11T01:23:05.757Z,11.80
2023-06-11T01:25:39.524Z,12.57
2023-06-11T01:28:12.221Z,12.77
2023-06-11T01:30:46.433Z,10.40
2023-06-11T01:33:15.735Z,10.93
2023-06-11T01:35:44.699Z,11.97
2023-06-11T01:38:13.120Z,11.47
2023-06-11T01:40:41.204Z,12.77
2023-06-11T01:43:10.632Z,11.10
2023-06-11T01:45:39.816Z,12.10
2023-06-11T01:48:08.227Z,11.53
2023-06-11T01:50:36.333Z,9.80
2023-06-11T01:53:04.396Z,13.83
2023-06-11T01:55:32.479Z,15.00
2023-06-11T01:58:01.893Z,14.50
2023-06-11T02:00:31.444Z,14.10
2023-06-11T02:03:01.112Z,15.40
2023-06-11T02:05:29.227Z,12.10
2023-06-11T02:07:57.334Z,12.87
2023-06-11T02:10:25.300Z,11.07
2023-06-11T02:12:53.193Z,12.40
2023-06-11T02:15:22.010Z,12.90
2023-06-11T02:17:51.485Z,15.40
2023-06-11T02:20:19.718Z,12.17
2023-06-11T02:22:47.835Z,12.60
2023-06-11T02:25:15.877Z,13.37
2023-06-11T02:27:44.091Z,15.27
2023-06-11T02:30:13.054Z,13.90
2023-06-11T02:32:42.046Z,15.70
2023-06-11T02:35:12.002Z,14.63
2023-06-11T02:37:40.219Z,16.27
2023-06-11T02:40:09.756Z,13.63
2023-06-11T02:42:37.785Z,16.30
2023-06-11T02:45:07.003Z,17.63
2023-06-11T02:47:35.001Z,15.60
2023-06-11T02:50:03.523Z,15.50
2023-06-11T02:52:32.936Z,15.60
2023-06-11T02:55:01.036Z,16.53
2023-06-11T03:04:01.459Z,14.03
2023-06-11T03:06:29.566Z,14.97
2023-06-11T03:08:59.272Z,16.30
2023-06-11T03:11:28.054Z,17.57
2023-06-11T03:13:56.229Z,18.33
2023-06-11T03:16:24.454Z,14.47
2023-06-11T03:18:52.507Z,16.00
2023-06-11T03:21:20.870Z,13.97
2023-06-11T03:27:00.659Z,13.87
2023-06-11T03:29:30.064Z,17.40
2023-06-11T03:31:58.275Z,16.13
2023-06-11T03:34:26.409Z,16.70
2023-06-11T03:36:54.500Z,14.20
2023-06-11T03:39:22.464Z,14.87
2023-06-11T03:41:50.521Z,15.70
2023-06-11T03:44:19.954Z,18.60
2023-06-11T03:46:48.903Z,13.87
2023-06-11T03:49:16.934Z,13.10
2023-06-11T03:51:44.920Z,13.40
2023-06-11T03:54:13.248Z,15.63
2023-06-11T03:56:41.264Z,16.70
2023-06-11T03:59:09.466Z,16.30
2023-06-11T04:01:39.058Z,18.03
2023-06-11T04:04:07.284Z,15.37
2023-06-11T04:06:39.140Z,15.33
2023-06-11T04:09:07.315Z,16.20
2023-06-11T04:11:35.580Z,15.47
2023-06-11T04:14:03.609Z,15.63
2023-06-11T04:16:31.811Z,14.83
2023-06-11T04:19:01.424Z,15.23
2023-06-11T04:21:30.656Z,15.90
2023-06-11T04:23:58.839Z,14.97
2023-06-11T04:26:26.805Z,15.20
2023-06-11T04:28:57.723Z,14.33
2023-06-11T04:31:27.593Z,15.50
2023-06-11T04:33:57.672Z,12.60
2023-06-11T04:36:28.944Z,11.70
2023-06-11T04:38:56.897Z,15.63
2023-06-11T04:41:27.751Z,17.57
2023-06-11T04:43:56.056Z,14.50
2023-06-11T04:46:24.167Z,11.20
2023-06-11T04:48:52.455Z,11.70
2023-06-11T04:51:21.643Z,13.43
2023-06-11T04:53:53.296Z,12.97
2023-06-11T04:56:21.448Z,13.40
2023-06-11T04:58:50.610Z,14.60
2023-06-11T05:01:19.179Z,11.97
2023-06-11T05:03:49.198Z,13.10
2023-06-11T05:06:22.705Z,12.57
2023-06-11T05:08:53.366Z,10.93
2023-06-11T05:11:21.309Z,13.30
2023-06-11T05:13:49.413Z,11.17
2023-06-11T05:16:22.664Z,11.23
2023-06-11T05:18:50.831Z,11.30
2023-06-11T05:21:18.713Z,12.20
2023-06-11T05:23:46.688Z,12.50
2023-06-11T05:26:16.469Z,11.50
2023-06-11T05:28:44.385Z,10.67
2023-06-11T05:31:14.178Z,11.00
2023-06-11T05:33:42.305Z,11.00
2023-06-11T05:36:10.425Z,11.60
2023-06-11T05:38:38.854Z,11.27
2023-06-11T05:41:06.868Z,10.90
2023-06-11T05:43:36.884Z,8.20
2023-06-11T05:46:04.947Z,11.40
2023-06-11T05:48:33.073Z,9.73
2023-06-11T05:51:01.566Z,11.90
2023-06-11T05:53:29.704Z,10.80
2023-06-11T05:55:57.735Z,9.00
2023-06-11T05:58:25.646Z,10.30
2023-06-11T06:00:55.631Z,10.53
2023-06-11T06:03:23.826Z,8.83
2023-06-11T06:05:52.059Z,9.10
2023-06-11T06:08:20.073Z,12.47
2023-06-11T06:10:48.108Z,9.73
2023-06-11T06:13:16.204Z,8.00
2023-06-11T06:15:44.317Z,7.80
2023-06-11T06:18:13.666Z,8.83
2023-06-11T06:20:41.971Z,6.90
2023-06-11T06:23:10.037Z,12.13
2023-06-11T06:25:39.121Z,8.50
2023-06-11T06:28:07.926Z,8.17
2023-06-11T06:30:36.444Z,9.87
2023-06-11T06:33:04.700Z,9.13
2023-06-11T06:35:34.721Z,8.83
2023-06-11T06:38:03.170Z,6.90
2023-06-11T06:40:31.278Z,9.70
2023-06-11T06:42:59.343Z,9.43
2023-06-11T06:45:27.251Z,8.57
2023-06-11T06:47:55.363Z,7.93
2023-06-11T06:50:23.626Z,8.10
2023-06-11T06:52:53.206Z,8.33
2023-06-11T06:55:21.196Z,8.20
2023-06-11T06:57:49.129Z,6.73
2023-06-11T07:00:18.629Z,10.93
2023-06-11T07:02:46.883Z,8.13
2023-06-11T07:05:15.152Z,8.47
2023-06-11T07:07:43.764Z,7.63
2023-06-11T07:10:13.834Z,6.70
2023-06-11T07:12:42.175Z,8.23
2023-06-11T07:15:11.439Z,9.30
2023-06-11T07:17:39.613Z,7.00
2023-06-11T07:20:09.551Z,8.30
2023-06-11T07:22:38.001Z,7.90
2023-06-11T07:25:07.958Z,8.20
2023-06-11T07:27:37.403Z,9.03
2023-06-11T07:30:06.427Z,9.40
2023-06-11T07:32:34.444Z,8.10
2023-06-11T07:35:02.572Z,6.80
2023-06-11T07:37:30.672Z,6.47
2023-06-11T07:39:58.607Z,8.00
2023-06-11T07:42:26.528Z,5.40
2023-06-11T07:44:55.908Z,9.50
2023-06-11T07:47:24.008Z,6.87
2023-06-11T07:49:51.928Z,5.10
2023-06-11T07:52:19.920Z,5.40
2023-06-11T07:54:47.921Z,5.43
2023-06-11T07:57:17.026Z,7.70
2023-06-11T07:59:45.104Z,6.57
2023-06-11T08:02:15.697Z,5.20
2023-06-11T08:04:43.955Z,7.63
2023-06-11T08:07:12.498Z,5.30
2023-06-11T08:09:40.604Z,5.07
2023-06-11T08:12:10.070Z,5.97
2023-06-11T08:14:38.340Z,6.10
2023-06-11T08:17:06.867Z,4.00
2023-06-11T08:19:36.354Z,4.40
2023-06-11T08:22:04.332Z,4.03
2023-06-11T08:24:32.822Z,4.87
2023-06-11T08:27:01.055Z,5.57
2023-06-11T08:29:29.247Z,5.13
2023-06-11T08:31:57.861Z,4.03
2023-06-11T08:34:25.949Z,6.57
2023-06-11T08:36:56.001Z,5.00
2023-06-11T08:39:23.993Z,5.00
2023-06-11T08:41:52.053Z,3.53
2023-06-11T08:44:21.385Z,4.47
2023-06-11T08:46:51.044Z,4.77
2023-06-11T08:49:23.180Z,5.43
2023-06-11T08:51:51.763Z,3.33
2023-06-11T08:54:21.391Z,3.60
2023-06-11T08:56:50.159Z,3.63
2023-06-11T08:59:20.172Z,3.53
2023-06-11T09:01:51.884Z,3.50
2023-06-11T09:04:20.226Z,5.80
2023-06-11T09:06:52.333Z,3.77
2023-06-11T09:09:22.023Z,5.53
2023-06-11T09:11:50.061Z,3.23
2023-06-11T09:14:18.024Z,3.90
2023-06-11T09:16:47.458Z,5.77
2023-06-11T09:19:17.113Z,4.40
2023-06-11T09:21:52.533Z,3.20
2023-06-11T09:24:23.246Z,3.97
2023-06-11T09:26:54.776Z,7.43
2023-06-11T09:29:23.161Z,4.00
2023-06-11T09:32:05.859Z,3.50
2023-06-11T09:34:37.911Z,4.17
2023-06-11T09:37:06.886Z,4.63
2023-06-11T09:39:36.207Z,3.57
2023-06-11T09:42:04.149Z,4.60
2023-06-11T09:44:35.402Z,3.00
2023-06-11T09:47:05.442Z,5.03
2023-06-11T09:49:34.823Z,3.07
2023-06-11T09:52:03.243Z,2.37
2023-06-11T09:54:32.264Z,3.13
2023-06-11T09:57:02.673Z,3.33
2023-06-11T09:59:32.409Z,3.00
2023-06-11T10:02:00.829Z,2.50
2023-06-11T10:04:28.747Z,3.70
2023-06-11T10:06:57.521Z,3.10
2023-06-11T10:09:26.403Z,3.40
2023-06-11T10:11:56.394Z,4.17
2023-06-11T10:14:25.992Z,3.37
2023-06-11T10:16:56.329Z,3.33
2023-06-11T10:19:24.630Z,2.90
2023-06-11T10:21:53.590Z,4.73
2023-06-11T10:24:25.590Z,2.63
2023-06-11T10:27:08.522Z,2.47
2023-06-11T10:29:43.627Z,2.27
2023-06-11T10:32:19.230Z,3.03
2023-06-11T10:34:49.749Z,3.40
2023-06-11T10:37:28.103Z,3.63
2023-06-11T10:39:56.467Z,4.10
2023-06-11T10:42:31.485Z,2.20
2023-06-11T10:45:22.101Z,3.23
2023-06-11T10:48:01.882Z,2.83
2023-06-11T10:50:35.273Z,2.37
2023-06-11T10:53:07.150Z,2.40
2023-06-11T10:55:36.200Z,2.23
2023-06-11T10:58:04.526Z,2.63
2023-06-11T11:00:39.341Z,2.80
2023-06-11T11:03:07.822Z,2.13
2023-06-11T11:05:36.058Z,2.33
2023-06-11T11:08:04.066Z,2.50
2023-06-11T11:10:32.032Z,3.07
2023-06-11T11:13:01.045Z,2.20
2023-06-11T11:15:31.111Z,2.80
2023-06-11T11:18:00.663Z,3.77
2023-06-11T11:20:28.734Z,2.60
2023-06-11T11:22:57.951Z,2.90
2023-06-11T11:25:29.085Z,2.73
2023-06-11T11:27:57.372Z,3.70
2023-06-11T11:30:29.358Z,3.70
2023-06-11T11:32:58.100Z,3.70
2023-06-11T11:35:29.667Z,2.63
2023-06-11T11:37:58.066Z,3.87
2023-06-11T11:40:26.073Z,2.70
2023-06-11T11:42:55.706Z,2.77
2023-06-11T11:45:25.373Z,3.57
2023-06-11T11:47:54.554Z,2.73
2023-06-11T11:50:24.294Z,3.13
2023-06-11T11:53:05.332Z,3.53
2023-06-11T11:55:35.478Z,3.70
2023-06-11T11:58:07.571Z,4.90
2023-06-11T12:00:36.903Z,3.20
2023-06-11T12:03:10.354Z,4.73
2023-06-11T12:05:38.690Z,3.23
2023-06-11T12:08:08.916Z,4.10
2023-06-11T12:10:37.272Z,3.27
2023-06-11T12:13:06.884Z,3.40
2023-06-11T12:15:35.038Z,3.17
2023-06-11T12:18:03.049Z,3.87
2023-06-11T12:20:31.276Z,3.57
2023-06-11T12:22:59.118Z,4.77
2023-06-11T12:25:31.324Z,4.40
2023-06-11T12:27:59.916Z,3.67
2023-06-11T12:30:28.212Z,4.60
2023-06-11T12:32:56.241Z,3.60
2023-06-11T12:35:24.142Z,3.93
2023-06-11T12:37:53.210Z,3.80
2023-06-11T12:40:21.176Z,3.33
2023-06-11T12:42:57.371Z,2.90
2023-06-11T12:45:25.349Z,5.83
2023-06-11T12:47:53.629Z,3.40
2023-06-11T12:50:24.946Z,3.63
2023-06-11T12:52:54.986Z,3.93
2023-06-11T12:55:23.070Z,3.53
2023-06-11T12:57:52.370Z,2.57
2023-06-11T13:00:20.995Z,2.90
2023-06-11T13:02:49.077Z,3.83
2023-06-11T13:05:17.193Z,3.90
2023-06-11T13:07:46.336Z,3.63
2023-06-11T13:10:14.789Z,4.50
2023-06-11T13:12:42.923Z,3.60
2023-06-11T13:15:13.150Z,3.30
2023-06-11T13:17:41.175Z,2.90
2023-06-11T13:20:11.074Z,4.00
2023-06-11T13:22:39.641Z,4.53
2023-06-11T13:25:08.826Z,4.70
2023-06-11T13:27:36.870Z,4.10
2023-06-11T13:30:09.919Z,2.60
2023-06-11T13:32:40.322Z,5.03
2023-06-11T13:35:08.814Z,3.47
2023-06-11T13:37:37.031Z,2.90
2023-06-11T13:40:05.689Z,4.30
2023-06-11T13:42:33.782Z,3.00
2023-06-11T13:45:05.613Z,2.30
2023-06-11T13:47:33.635Z,2.80
2023-06-11T13:50:03.252Z,3.07
2023-06-11T13:52:31.498Z,3.23
2023-06-11T13:55:00.230Z,2.87
2023-06-11T13:57:29.251Z,3.17
2023-06-11T13:59:57.482Z,3.77
2023-06-11T14:02:26.408Z,4.20
2023-06-11T14:04:54.625Z,4.17
2023-06-11T14:07:24.329Z,3.00
2023-06-11T14:09:52.795Z,3.83
2023-06-11T14:12:20.764Z,3.07
2023-06-11T14:14:48.738Z,5.00
2023-06-11T14:17:16.837Z,2.90
2023-06-11T14:19:45.084Z,2.70
2023-06-11T14:22:13.008Z,3.50
2023-06-11T14:24:42.397Z,3.80
2023-06-11T14:27:10.679Z,2.90
2023-06-11T14:29:38.652Z,2.60
2023-06-11T14:32:07.833Z,3.50
2023-06-11T14:34:36.318Z,3.80
2023-06-11T14:37:04.380Z,3.13
2023-06-11T14:39:32.429Z,3.83
2023-06-11T14:42:01.769Z,2.50
2023-06-11T14:44:29.843Z,2.90
2023-06-11T14:46:57.870Z,4.20
2023-06-11T14:49:26.210Z,3.20
2023-06-11T14:51:54.150Z,3.03
2023-06-11T14:54:22.298Z,4.70
2023-06-11T14:56:50.323Z,3.50
2023-06-11T14:59:19.550Z,2.90
2023-06-11T15:01:47.462Z,3.60
2023-06-11T15:04:15.620Z,2.40
2023-06-11T15:06:43.628Z,2.83
2023-06-11T15:09:11.699Z,2.60
2023-06-11T15:11:39.856Z,3.23
2023-06-11T15:14:15.965Z,3.53
2023-06-11T15:16:54.873Z,3.70
2023-06-11T15:19:26.976Z,3.10
2023-06-11T15:22:04.329Z,2.53
2023-06-11T15:24:35.961Z,3.20
2023-06-11T15:27:09.433Z,3.00
2023-06-11T15:29:37.939Z,3.90
2023-06-11T15:32:11.405Z,3.50
2023-06-11T15:34:39.880Z,2.90
2023-06-11T15:37:08.230Z,2.63
2023-06-11T15:39:38.118Z,3.93
2023-06-11T15:42:06.920Z,4.10
2023-06-11T15:47:34.653Z,2.90
2023-06-11T15:50:17.888Z,3.17
2023-06-11T15:52:48.630Z,6.07
2023-06-11T15:55:18.464Z,2.93
2023-06-11T15:57:46.904Z,2.70
2023-06-11T16:00:16.132Z,6.00
2023-06-11T16:02:45.580Z,2.90
2023-06-11T16:05:13.763Z,3.30
2023-06-11T16:07:41.865Z,3.77
2023-06-11T16:10:13.969Z,4.77
2023-06-11T16:12:44.031Z,2.67
2023-06-11T16:15:12.882Z,2.97
2023-06-11T16:17:41.000Z,4.63
2023-06-11T16:20:12.189Z,2.33
2023-06-11T16:22:40.481Z,3.30
2023-06-11T16:25:09.010Z,2.73
2023-06-11T16:27:37.174Z,2.90
2023-06-11T16:30:11.438Z,3.30
2023-06-11T16:32:39.690Z,2.80
2023-06-11T16:35:08.378Z,3.03
2023-06-11T16:37:39.685Z,2.83
2023-06-11T16:40:09.012Z,4.10
2023-06-11T16:42:36.888Z,2.90
2023-06-11T16:45:05.829Z,4.70
2023-06-11T16:47:33.867Z,2.90
2023-06-11T16:50:01.834Z,2.90
2023-06-11T16:52:30.473Z,3.10
2023-06-11T16:55:01.961Z,3.60
2023-06-11T16:57:30.396Z,3.53
2023-06-11T16:59:59.406Z,2.70
2023-06-11T17:02:27.357Z,3.77
2023-06-11T17:04:55.592Z,4.17
2023-06-11T17:07:23.500Z,4.00
2023-06-11T17:09:51.407Z,3.60
2023-06-11T17:12:20.828Z,3.60
2023-06-11T17:14:49.797Z,3.87
2023-06-11T17:17:18.711Z,4.03
2023-06-11T17:19:47.025Z,3.83
2023-06-11T17:22:15.176Z,4.40
2023-06-11T17:24:43.267Z,4.40
2023-06-11T17:27:12.250Z,4.30
2023-06-11T17:29:41.779Z,3.67
2023-06-11T17:32:10.392Z,4.17
2023-06-11T17:34:40.604Z,4.07
2023-06-11T17:37:08.961Z,3.90
2023-06-11T17:39:36.961Z,3.00
2023-06-11T17:42:05.557Z,4.00
2023-06-11T17:44:34.126Z,2.83
2023-06-11T17:47:03.568Z,3.97
2023-06-11T17:49:31.822Z,2.57
2023-06-11T17:51:59.781Z,4.70
2023-06-11T17:54:27.899Z,4.63
2023-06-11T17:56:56.042Z,3.00
2023-06-11T17:59:23.992Z,3.17
2023-06-11T18:01:52.065Z,3.00
2023-06-11T18:04:23.030Z,3.00
2023-06-11T18:06:51.092Z,4.70
2023-06-11T18:09:21.494Z,3.00
2023-06-11T18:11:49.518Z,5.53
2023-06-11T18:14:17.471Z,4.40
2023-06-11T18:16:45.644Z,4.80
2023-06-11T18:19:13.650Z,3.00
2023-06-11T18:21:43.016Z,4.63
2023-06-11T18:24:11.092Z,3.43
2023-06-11T18:26:40.768Z,3.20
2023-06-11T18:29:08.718Z,4.03
2023-06-11T18:31:36.749Z,4.77
2023-06-11T18:34:04.727Z,3.50
2023-06-11T18:36:32.743Z,5.13
2023-06-11T18:39:02.195Z,5.10
2023-06-11T18:41:31.063Z,3.43
2023-06-11T18:43:59.228Z,4.40
2023-06-11T18:46:28.172Z,3.37
2023-06-11T18:48:56.634Z,3.20
2023-06-11T18:51:24.559Z,4.83
2023-06-11T18:53:52.551Z,3.50
2023-06-11T18:56:21.939Z,4.10
2023-06-11T18:58:50.190Z,4.00
2023-06-11T19:01:18.936Z,4.57
2023-06-11T19:03:47.130Z,4.10
2023-06-11T19:06:15.078Z,4.73
2023-06-11T19:08:43.225Z,4.73
2023-06-11T19:11:11.253Z,4.43
2023-06-11T19:13:43.719Z,3.67
2023-06-11T19:16:11.596Z,3.97
2023-06-11T19:18:39.483Z,4.60
2023-06-11T19:21:07.512Z,5.80
2023-06-11T19:23:35.719Z,4.13
2023-06-11T19:26:03.834Z,4.13
2023-06-11T19:28:31.827Z,3.93
2023-06-11T19:31:01.447Z,4.90
2023-06-11T19:33:29.570Z,8.33
2023-06-11T19:35:57.587Z,6.50
2023-06-11T19:38:25.692Z,3.40
2023-06-11T19:40:53.608Z,3.60
2023-06-11T19:43:21.799Z,5.73
2023-06-11T19:45:49.810Z,4.27
2023-06-11T19:48:20.584Z,4.73
2023-06-11T19:50:48.754Z,4.30
2023-06-11T19:53:16.648Z,4.37
2023-06-11T19:55:45.627Z,5.13
2023-06-11T19:58:13.903Z,5.30
2023-06-11T20:00:42.108Z,4.13
2023-06-11T20:03:10.084Z,3.43
2023-06-11T20:05:39.826Z,4.63
2023-06-11T20:08:09.917Z,5.13
2023-06-11T20:10:40.422Z,5.80
2023-06-11T20:13:08.559Z,5.60
2023-06-11T20:15:36.479Z,3.53
2023-06-11T20:18:04.710Z,5.30
2023-06-11T20:20:32.632Z,3.70
2023-06-11T20:23:02.011Z,4.30
2023-06-11T20:25:30.177Z,5.53
2023-06-11T20:27:58.204Z,3.90
2023-06-11T20:30:27.016Z,4.63
2023-06-11T20:32:55.110Z,4.50
2023-06-11T20:35:23.199Z,4.40
2023-06-11T20:37:51.312Z,4.47
2023-06-11T20:40:20.719Z,5.70
2023-06-11T20:42:48.677Z,4.33
2023-06-11T20:45:16.845Z,5.00
2023-06-11T20:47:45.078Z,5.37
2023-06-11T20:50:13.472Z,4.70
2023-06-11T20:52:41.632Z,6.07
2023-06-11T20:55:10.653Z,5.47
2023-06-11T20:57:40.112Z,5.70
2023-06-11T21:00:10.081Z,6.00
2023-06-11T21:02:38.194Z,7.70
2023-06-11T21:05:06.360Z,4.93
2023-06-11T21:07:34.553Z,5.13
2023-06-11T21:10:02.603Z,3.70
2023-06-11T21:12:30.590Z,5.17
2023-06-11T21:15:00.294Z,3.23
2023-06-11T21:17:28.842Z,3.93
2023-06-11T21:19:56.939Z,4.73
2023-06-11T21:22:24.804Z,4.20
2023-06-11T21:24:52.841Z,5.77
2023-06-11T21:27:20.748Z,3.50
2023-06-11T21:29:48.968Z,4.10
2023-06-11T21:32:18.353Z,6.53
2023-06-11T21:34:46.809Z,3.80
2023-06-11T21:37:14.692Z,4.33
2023-06-11T21:39:42.587Z,6.20
2023-06-11T21:42:11.384Z,5.83
2023-06-11T21:44:39.255Z,3.93
2023-06-11T21:47:09.565Z,4.80
2023-06-11T21:49:39.021Z,5.50
2023-06-11T21:52:09.175Z,5.07
2023-06-11T21:54:37.051Z,4.37
2023-06-11T21:57:05.346Z,4.37
2023-06-11T21:59:33.277Z,7.30
2023-06-11T22:02:01.433Z,5.47
2023-06-11T22:04:29.473Z,5.07
2023-06-11T22:07:06.762Z,6.87
2023-06-11T22:09:46.124Z,5.60
2023-06-11T22:12:15.219Z,6.47
2023-06-11T22:14:45.856Z,4.13
2023-06-11T22:20:16.544Z,4.57
2023-06-11T22:22:50.665Z,7.03
2023-06-11T22:25:32.336Z,5.20
2023-06-11T22:28:12.952Z,7.17
2023-06-11T22:30:52.793Z,4.50
2023-06-11T22:33:24.921Z,8.40
2023-06-11T22:35:52.974Z,6.80
2023-06-11T22:38:22.668Z,5.17
2023-06-11T22:40:50.614Z,4.93
2023-06-11T22:43:18.822Z,5.00
2023-06-11T22:45:46.920Z,5.60
2023-06-11T22:48:14.891Z,5.77
2023-06-11T22:50:42.957Z,5.17
2023-06-11T22:53:14.631Z,4.93
2023-06-11T22:55:44.228Z,7.80
2023-06-11T22:58:12.173Z,6.00
2023-06-11T23:00:41.039Z,4.63
2023-06-11T23:03:10.491Z,7.60
2023-06-11T23:05:38.676Z,4.80
2023-06-11T23:08:06.722Z,6.50
2023-06-11T23:10:34.878Z,4.33
2023-06-11T23:13:04.247Z,5.30
2023-06-11T23:15:32.357Z,5.73
2023-06-11T23:18:06.131Z,4.37
2023-06-11T23:20:36.071Z,5.10
2023-06-11T23:23:06.611Z,5.00
2023-06-11T23:25:35.089Z,6.00
2023-06-11T23:28:04.542Z,5.53
2023-06-11T23:30:32.691Z,5.63
2023-06-11T23:33:01.048Z,7.00
2023-06-11T23:35:29.159Z,5.83
2023-06-11T23:37:57.719Z,4.90
2023-06-11T23:40:25.774Z,8.00
2023-06-11T23:42:53.683Z,7.30
2023-06-11T23:45:22.932Z,5.67
2023-06-11T23:47:51.217Z,6.70
2023-06-11T23:50:19.236Z,6.77
2023-06-11T23:52:47.224Z,5.33
2023-06-11T23:55:15.513Z,7.03
2023-06-11T23:57:44.716Z,8.23
